createdAt,value
2023-05-05T00:00:03.146Z,48.84
2023-05-05T00:01:02.597Z,48.91
2023-05-05T00:02:02.634Z,48.73
2023-05-05T00:03:02.655Z,48.54
2023-05-05T00:04:02.626Z,48.75
2023-05-05T00:05:02.605Z,48.81
2023-05-05T00:06:02.630Z,48.65
2023-05-05T00:07:02.611Z,48.44
2023-05-05T00:08:02.611Z,48.25
2023-05-05T00:09:02.606Z,48.34
2023-05-05T00:10:02.623Z,48.08
2023-05-05T00:11:02.626Z,47.81
2023-05-05T00:12:02.615Z,47.71
2023-05-05T00:13:02.657Z,47.69
2023-05-05T00:14:02.618Z,47.87
2023-05-05T00:15:02.597Z,47.91
2023-05-05T00:16:02.601Z,47.38
2023-05-05T00:17:02.610Z,47.27
2023-05-05T00:18:02.649Z,47.11
2023-05-05T00:19:02.636Z,47.41
2023-05-05T00:20:02.590Z,47.71
2023-05-05T00:21:02.595Z,48.04
2023-05-05T00:22:02.583Z,48.40
2023-05-05T00:23:02.588Z,48.73
2023-05-05T00:24:02.589Z,48.84
2023-05-05T00:25:02.585Z,48.87
2023-05-05T00:26:02.625Z,48.71
2023-05-05T00:27:02.633Z,48.68
2023-05-05T00:28:02.664Z,48.79
2023-05-05T00:29:02.708Z,49.07
2023-05-05T00:30:02.732Z,48.94
2023-05-05T00:31:02.768Z,49.26
2023-05-05T00:32:02.787Z,49.54
2023-05-05T00:33:02.977Z,49.56
2023-05-05T00:34:02.793Z,49.37
2023-05-05T00:35:02.780Z,48.94
2023-05-05T00:36:02.778Z,48.90
2023-05-05T00:37:02.762Z,48.92
2023-05-05T00:38:02.806Z,49.05
2023-05-05T00:39:02.772Z,49.17
2023-05-05T00:40:02.778Z,49.39
2023-05-05T00:41:02.793Z,49.49
2023-05-05T00:42:02.821Z,49.52
2023-05-05T00:43:02.932Z,49.58
2023-05-05T00:44:02.985Z,49.45
2023-05-05T00:45:02.939Z,49.10
2023-05-05T00:46:03.047Z,49.00
2023-05-05T00:47:03.004Z,49.19
2023-05-05T00:48:03.074Z,49.01
2023-05-05T00:49:03.122Z,49.14
2023-05-05T00:50:03.109Z,49.22
2023-05-05T00:51:03.138Z,49.37
2023-05-05T00:52:03.153Z,49.63
2023-05-05T00:53:03.193Z,49.74
2023-05-05T00:54:03.215Z,49.86
2023-05-05T00:55:03.274Z,49.32
2023-05-05T00:56:03.300Z,49.43
2023-05-05T00:57:03.329Z,49.74
2023-05-05T00:58:03.364Z,49.96
2023-05-05T00:59:03.402Z,50.19
2023-05-05T01:00:03.450Z,50.33
2023-05-05T01:01:03.494Z,50.39
2023-05-05T01:02:03.574Z,50.25
2023-05-05T01:03:03.739Z,50.28
2023-05-05T01:04:03.778Z,50.42
2023-05-05T01:05:03.727Z,50.16
2023-05-05T01:06:03.788Z,49.78
2023-05-05T01:07:03.884Z,48.80
2023-05-05T01:08:03.903Z,48.80
2023-05-05T01:09:03.955Z,47.89
2023-05-05T01:10:18.216Z,46.83
2023-05-05T01:11:04.969Z,46.94
2023-05-05T01:12:03.943Z,46.44
2023-05-05T01:13:04.030Z,46.12
2023-05-05T01:14:03.925Z,46.06
2023-05-05T01:15:03.919Z,46.06
2023-05-05T01:16:03.927Z,45.97
2023-05-05T01:17:03.893Z,46.06
2023-05-05T01:18:03.944Z,45.88
2023-05-05T01:19:03.882Z,46.17
2023-05-05T01:20:03.871Z,46.42
2023-05-05T01:21:03.833Z,47.67
2023-05-05T01:22:03.833Z,47.87
2023-05-05T01:23:03.825Z,48.79
2023-05-05T01:24:03.812Z,48.78
2023-05-05T01:25:03.816Z,49.03
2023-05-05T01:26:03.858Z,49.08
2023-05-05T01:27:03.891Z,49.25
2023-05-05T01:28:03.944Z,49.58
2023-05-05T01:29:04.017Z,49.53
2023-05-05T01:30:04.056Z,49.17
2023-05-05T01:31:04.075Z,49.46
2023-05-05T01:32:04.178Z,49.72
2023-05-05T01:33:04.147Z,49.85
2023-05-05T01:34:04.180Z,49.93
2023-05-05T01:35:04.224Z,49.85
2023-05-05T01:36:04.214Z,50.11
2023-05-05T01:37:04.224Z,50.17
2023-05-05T01:38:04.249Z,49.69
2023-05-05T01:39:04.270Z,49.47
2023-05-05T01:40:04.359Z,49.78
2023-05-05T01:41:04.310Z,49.80
2023-05-05T01:42:04.339Z,49.77
2023-05-05T01:43:04.382Z,49.98
2023-05-05T01:44:04.405Z,50.11
2023-05-05T01:45:04.436Z,50.36
2023-05-05T01:46:04.516Z,50.47
2023-05-05T01:47:04.515Z,50.55
2023-05-05T01:48:04.593Z,50.52
2023-05-05T01:49:04.599Z,50.56
2023-05-05T01:50:04.645Z,50.63
2023-05-05T01:51:04.664Z,50.64
2023-05-05T01:52:04.691Z,50.84
2023-05-05T01:53:04.730Z,51.16
2023-05-05T01:54:04.765Z,51.08
2023-05-05T01:55:04.809Z,51.17
2023-05-05T01:56:04.872Z,51.08
2023-05-05T01:57:04.935Z,51.19
2023-05-05T01:58:05.022Z,50.70
2023-05-05T01:59:05.052Z,50.56
2023-05-05T02:00:05.148Z,50.20
2023-05-05T02:01:05.166Z,50.09
2023-05-05T02:02:05.254Z,50.28
2023-05-05T02:03:05.305Z,50.02
2023-05-05T02:04:05.322Z,49.60
2023-05-05T02:05:05.374Z,49.07
2023-05-05T02:06:05.433Z,48.59
2023-05-05T02:07:05.476Z,49.11
2023-05-05T02:08:05.526Z,49.50
2023-05-05T02:09:05.558Z,49.70
2023-05-05T02:10:05.686Z,49.82
2023-05-05T02:11:05.620Z,49.58
2023-05-05T02:12:05.665Z,49.32
2023-05-05T02:13:05.790Z,49.59
2023-05-05T02:14:05.710Z,49.78
2023-05-05T02:15:05.751Z,49.58
2023-05-05T02:16:05.822Z,49.47
2023-05-05T02:17:05.768Z,49.95
2023-05-05T02:18:05.868Z,49.80
2023-05-05T02:19:05.822Z,49.49
2023-05-05T02:20:05.933Z,49.72
2023-05-05T02:21:05.882Z,49.53
2023-05-05T02:22:05.907Z,49.72
2023-05-05T02:23:05.983Z,49.80
2023-05-05T02:24:06.020Z,49.83
2023-05-05T02:25:05.992Z,49.93
2023-05-05T02:26:06.046Z,49.44
2023-05-05T02:27:06.067Z,49.39
2023-05-05T02:28:06.084Z,49.59
2023-05-05T02:29:06.126Z,48.90
2023-05-05T02:30:06.418Z,49.12
2023-05-05T02:31:06.237Z,48.95
2023-05-05T02:32:06.246Z,48.73
2023-05-05T02:33:06.369Z,49.06
2023-05-05T02:34:06.319Z,49.06
2023-05-05T02:35:06.367Z,49.36
2023-05-05T02:36:06.398Z,49.51
2023-05-05T02:37:06.448Z,49.99
2023-05-05T02:38:06.464Z,49.92
2023-05-05T02:39:06.517Z,49.65
2023-05-05T02:40:06.799Z,49.16
2023-05-05T02:41:06.552Z,49.59
2023-05-05T02:42:06.620Z,49.83
2023-05-05T02:43:06.780Z,49.90
2023-05-05T02:44:06.724Z,50.15
2023-05-05T02:45:06.871Z,50.15
2023-05-05T02:46:06.839Z,49.79
2023-05-05T02:47:07.697Z,49.76
2023-05-05T02:48:06.941Z,49.65
2023-05-05T02:49:06.931Z,49.20
2023-05-05T02:50:07.178Z,49.00
2023-05-05T02:51:06.994Z,49.14
2023-05-05T02:52:07.015Z,49.05
2023-05-05T02:53:07.046Z,49.37
2023-05-05T02:54:07.049Z,49.56
2023-05-05T02:55:07.085Z,49.40
2023-05-05T02:56:07.101Z,48.26
2023-05-05T02:57:07.131Z,48.51
2023-05-05T02:58:07.165Z,49.04
2023-05-05T02:59:07.184Z,49.33
2023-05-05T03:00:07.329Z,49.86
2023-05-05T03:01:07.323Z,49.64
2023-05-05T03:02:07.288Z,50.02
2023-05-05T03:03:07.393Z,50.34
2023-05-05T03:04:07.397Z,50.60
2023-05-05T03:05:07.450Z,50.86
2023-05-05T03:06:07.494Z,50.88
2023-05-05T03:07:07.525Z,50.96
2023-05-05T03:08:07.566Z,50.70
2023-05-05T03:09:07.585Z,50.61
2023-05-05T03:10:08.024Z,50.71
2023-05-05T03:11:07.698Z,50.59
2023-05-05T03:12:07.733Z,50.87
2023-05-05T03:13:07.910Z,51.47
2023-05-05T03:14:07.823Z,51.48
2023-05-05T03:15:07.879Z,51.45
2023-05-05T03:16:07.924Z,51.31
2023-05-05T03:17:07.964Z,51.42
2023-05-05T03:18:08.023Z,51.30
2023-05-05T03:19:08.079Z,52.05
2023-05-05T03:20:08.329Z,52.28
2023-05-05T03:21:08.238Z,52.57
2023-05-05T03:22:08.302Z,52.50
2023-05-05T03:23:08.379Z,52.64
2023-05-05T03:24:08.448Z,52.85
2023-05-05T03:25:08.531Z,53.15
2023-05-05T03:26:08.587Z,53.06
2023-05-05T03:27:08.657Z,53.08
2023-05-05T03:28:08.696Z,53.37
2023-05-05T03:29:08.756Z,53.60
2023-05-05T03:30:08.990Z,53.52
2023-05-05T03:31:08.890Z,53.01
2023-05-05T03:32:08.998Z,52.65
2023-05-05T03:33:09.188Z,52.38
2023-05-05T03:34:09.106Z,51.87
2023-05-05T03:35:09.162Z,51.91
2023-05-05T03:36:09.231Z,51.41
2023-05-05T03:37:09.309Z,50.64
2023-05-05T03:38:09.355Z,50.63
2023-05-05T03:39:09.491Z,50.96
2023-05-05T03:40:09.631Z,50.98
2023-05-05T03:41:09.547Z,50.92
2023-05-05T03:42:09.608Z,51.64
2023-05-05T03:43:09.676Z,51.99
2023-05-05T03:44:09.724Z,52.37
2023-05-05T03:45:09.788Z,52.90
2023-05-05T03:46:09.946Z,53.52
2023-05-05T03:47:09.912Z,53.55
2023-05-05T03:48:10.031Z,52.70
2023-05-05T03:49:10.042Z,52.03
2023-05-05T03:50:10.200Z,51.85
2023-05-05T03:51:10.097Z,51.90
2023-05-05T03:52:10.137Z,51.72
2023-05-05T03:53:10.188Z,52.01
2023-05-05T03:54:10.258Z,52.38
2023-05-05T03:55:10.326Z,52.31
2023-05-05T03:56:10.393Z,51.95
2023-05-05T03:57:10.452Z,51.76
2023-05-05T03:58:10.508Z,51.82
2023-05-05T03:59:10.617Z,51.78
2023-05-05T04:00:10.616Z,51.63
2023-05-05T04:01:10.666Z,51.76
2023-05-05T04:02:10.752Z,52.10
2023-05-05T04:03:11.053Z,52.32
2023-05-05T04:04:10.913Z,52.36
2023-05-05T04:05:10.907Z,52.08
2023-05-05T04:06:10.986Z,52.17
2023-05-05T04:07:11.035Z,52.03
2023-05-05T04:08:11.113Z,51.67
2023-05-05T04:09:11.174Z,51.83
2023-05-05T04:10:11.231Z,52.02
2023-05-05T04:11:11.303Z,51.83
2023-05-05T04:12:11.347Z,51.51
2023-05-05T04:13:11.473Z,51.02
2023-05-05T04:14:11.453Z,50.79
2023-05-05T04:15:11.524Z,50.96
2023-05-05T04:16:11.589Z,51.67
2023-05-05T04:17:11.632Z,51.79
2023-05-05T04:18:11.703Z,51.87
2023-05-05T04:19:11.762Z,51.95
2023-05-05T04:20:11.855Z,52.36
2023-05-05T04:21:11.908Z,52.86
2023-05-05T04:22:11.967Z,53.07
2023-05-05T04:23:12.048Z,53.17
2023-05-05T04:24:12.112Z,53.22
2023-05-05T04:25:12.182Z,53.32
2023-05-05T04:26:12.261Z,52.65
2023-05-05T04:27:12.336Z,52.87
2023-05-05T04:28:12.431Z,53.22
2023-05-05T04:29:12.479Z,53.09
2023-05-05T04:30:12.544Z,53.17
2023-05-05T04:31:12.645Z,53.32
2023-05-05T04:32:12.680Z,53.46
2023-05-05T04:33:12.738Z,52.89
2023-05-05T04:34:12.780Z,52.12
2023-05-05T04:35:12.875Z,52.28
2023-05-05T04:36:12.919Z,51.86
2023-05-05T04:37:12.988Z,52.38
2023-05-05T04:38:13.062Z,51.93
2023-05-05T04:39:13.100Z,51.36
2023-05-05T04:40:13.111Z,51.16
2023-05-05T04:41:13.132Z,51.14
2023-05-05T04:42:13.152Z,51.59
2023-05-05T04:43:13.175Z,51.09
2023-05-05T04:44:13.245Z,51.08
2023-05-05T04:45:13.317Z,51.23
2023-05-05T04:46:13.371Z,51.92
2023-05-05T04:47:14.763Z,52.20
2023-05-05T04:48:13.504Z,51.98
2023-05-05T04:49:13.560Z,51.44
2023-05-05T04:50:13.631Z,50.89
2023-05-05T04:51:13.686Z,51.07
2023-05-05T04:52:13.740Z,51.28
2023-05-05T04:53:13.807Z,50.84
2023-05-05T04:54:13.853Z,50.36
2023-05-05T04:55:14.724Z,49.86
2023-05-05T04:56:13.978Z,49.59
2023-05-05T04:57:14.045Z,49.51
2023-05-05T04:58:14.110Z,49.33
2023-05-05T04:59:14.170Z,49.12
2023-05-05T05:00:14.218Z,49.73
2023-05-05T05:01:14.261Z,50.10
2023-05-05T05:02:14.386Z,50.84
2023-05-05T05:03:14.454Z,52.50
2023-05-05T05:04:14.417Z,53.20
2023-05-05T05:05:14.490Z,53.70
2023-05-05T05:06:14.557Z,53.95
2023-05-05T05:07:14.599Z,54.56
2023-05-05T05:08:14.662Z,55.35
2023-05-05T05:09:14.739Z,55.56
2023-05-05T05:10:14.816Z,55.74
2023-05-05T05:11:14.904Z,55.88
2023-05-05T05:12:14.983Z,56.37
2023-05-05T05:13:15.120Z,57.05
2023-05-05T05:14:15.176Z,57.64
2023-05-05T05:15:15.229Z,57.50
2023-05-05T05:16:15.373Z,57.19
2023-05-05T05:17:15.363Z,56.96
2023-05-05T05:18:15.420Z,56.82
2023-05-05T05:19:15.521Z,56.42
2023-05-05T05:20:15.582Z,56.18
2023-05-05T05:21:15.673Z,55.91
2023-05-05T05:22:15.712Z,55.43
2023-05-05T05:23:15.752Z,55.46
2023-05-05T05:24:15.782Z,55.32
2023-05-05T05:25:15.833Z,55.25
2023-05-05T05:26:15.837Z,55.15
2023-05-05T05:27:15.863Z,54.80
2023-05-05T05:28:15.879Z,55.12
2023-05-05T05:29:15.928Z,55.55
2023-05-05T05:30:15.999Z,55.64
2023-05-05T05:31:16.048Z,55.48
2023-05-05T05:32:16.162Z,54.78
2023-05-05T05:33:16.149Z,54.34
2023-05-05T05:34:16.212Z,53.00
2023-05-05T05:35:17.160Z,51.88
2023-05-05T05:36:16.802Z,50.94
2023-05-05T05:37:16.430Z,50.93
2023-05-05T05:38:16.530Z,51.10
2023-05-05T05:39:16.498Z,51.18
2023-05-05T05:40:16.540Z,50.71
2023-05-05T05:41:16.568Z,51.26
2023-05-05T05:42:16.653Z,51.72
2023-05-05T05:43:16.701Z,51.37
2023-05-05T05:44:16.767Z,50.55
2023-05-05T05:45:16.820Z,50.54
2023-05-05T05:46:16.883Z,50.72
2023-05-05T05:47:16.957Z,50.48
2023-05-05T05:48:16.979Z,49.96
2023-05-05T05:49:17.035Z,49.83
2023-05-05T05:50:17.094Z,50.06
2023-05-05T05:51:17.164Z,50.10
2023-05-05T05:52:17.221Z,50.33
2023-05-05T05:53:17.291Z,50.58
2023-05-05T05:54:17.327Z,50.60
2023-05-05T05:55:17.392Z,51.60
2023-05-05T05:56:17.442Z,51.64
2023-05-05T05:57:17.514Z,51.04
2023-05-05T05:58:17.567Z,50.75
2023-05-05T05:59:17.611Z,50.30
2023-05-05T06:00:17.642Z,50.73
2023-05-05T06:01:17.671Z,50.49
2023-05-05T06:02:17.720Z,49.52
2023-05-05T06:03:17.851Z,49.10
2023-05-05T06:04:17.726Z,49.41
2023-05-05T06:05:17.743Z,50.27
2023-05-05T06:06:17.794Z,50.31
2023-05-05T06:07:17.829Z,48.84
2023-05-05T06:08:17.889Z,48.16
2023-05-05T06:09:17.903Z,48.25
2023-05-05T06:10:27.257Z,48.41
2023-05-05T06:11:18.949Z,49.06
2023-05-05T06:12:18.765Z,49.03
2023-05-05T06:13:18.776Z,49.59
2023-05-05T06:14:18.251Z,49.15
2023-05-05T06:15:17.903Z,49.28
2023-05-05T06:16:17.917Z,49.03
2023-05-05T06:17:17.886Z,47.94
2023-05-05T06:18:18.018Z,48.14
2023-05-05T06:19:17.903Z,48.06
2023-05-05T06:20:17.893Z,48.27
2023-05-05T06:21:17.859Z,48.25
2023-05-05T06:22:17.863Z,47.46
2023-05-05T06:23:17.935Z,47.52
2023-05-05T06:24:18.009Z,46.98
2023-05-05T06:25:18.045Z,47.34
2023-05-05T06:26:18.112Z,47.04
2023-05-05T06:27:18.173Z,47.21
2023-05-05T06:28:18.200Z,47.14
2023-05-05T06:29:18.242Z,47.29
2023-05-05T06:30:18.309Z,46.89
2023-05-05T06:31:18.390Z,46.98
2023-05-05T06:32:18.385Z,47.17
2023-05-05T06:33:18.410Z,47.11
2023-05-05T06:34:18.483Z,46.69
2023-05-05T06:35:18.542Z,46.96
2023-05-05T06:36:18.647Z,47.10
2023-05-05T06:37:18.679Z,47.20
2023-05-05T06:38:18.733Z,47.56
2023-05-05T06:39:19.761Z,47.31
2023-05-05T06:40:18.809Z,47.07
2023-05-05T06:41:18.809Z,47.21
2023-05-05T06:42:18.859Z,46.95
2023-05-05T06:43:18.909Z,46.88
2023-05-05T06:44:18.970Z,46.17
2023-05-05T06:45:19.032Z,46.00
2023-05-05T06:46:19.167Z,46.34
2023-05-05T06:47:19.180Z,46.10
2023-05-05T06:48:19.207Z,46.16
2023-05-05T06:49:19.244Z,46.08
2023-05-05T06:50:19.305Z,45.70
2023-05-05T06:51:19.268Z,45.53
2023-05-05T06:52:19.293Z,45.64
2023-05-05T06:53:19.319Z,45.52
2023-05-05T06:54:19.352Z,45.42
2023-05-05T06:55:19.456Z,45.57
2023-05-05T06:56:19.443Z,45.71
2023-05-05T06:57:19.549Z,45.85
2023-05-05T06:58:19.560Z,45.46
2023-05-05T06:59:19.572Z,45.50
2023-05-05T07:00:19.597Z,45.58
2023-05-05T07:01:19.699Z,45.49
2023-05-05T07:02:19.653Z,45.35
2023-05-05T07:03:19.760Z,45.38
2023-05-05T07:04:19.684Z,45.47
2023-05-05T07:05:19.655Z,44.89
2023-05-05T07:06:19.633Z,45.02
2023-05-05T07:07:19.629Z,44.83
2023-05-05T07:08:19.625Z,44.69
2023-05-05T07:09:19.603Z,44.48
2023-05-05T07:10:19.617Z,44.33
2023-05-05T07:11:19.873Z,44.26
2023-05-05T07:12:19.644Z,44.06
2023-05-05T07:13:19.734Z,44.20
2023-05-05T07:14:20.960Z,43.95
2023-05-05T07:15:28.509Z,43.78
2023-05-05T07:16:20.603Z,43.57
2023-05-05T07:17:19.532Z,43.47
2023-05-05T07:18:19.551Z,43.79
2023-05-05T07:19:19.473Z,43.89
2023-05-05T07:20:19.437Z,43.44
2023-05-05T07:21:19.401Z,42.97
2023-05-05T07:22:19.372Z,42.67
2023-05-05T07:23:19.324Z,42.73
2023-05-05T07:24:20.310Z,42.57
2023-05-05T07:25:19.273Z,42.60
2023-05-05T07:26:19.257Z,42.69
2023-05-05T07:27:19.328Z,42.51
2023-05-05T07:28:19.300Z,42.46
2023-05-05T07:29:19.327Z,42.60
2023-05-05T07:30:19.869Z,42.43
2023-05-05T07:31:19.340Z,42.48
2023-05-05T07:32:19.442Z,42.17
2023-05-05T07:33:19.261Z,41.91
2023-05-05T07:34:19.240Z,41.93
2023-05-05T07:35:19.197Z,42.11
2023-05-05T07:36:19.150Z,41.58
2023-05-05T07:37:19.110Z,41.57
2023-05-05T07:38:19.077Z,41.65
2023-05-05T07:39:19.017Z,41.49
2023-05-05T07:40:18.970Z,41.27
2023-05-05T07:41:18.981Z,41.08
2023-05-05T07:42:18.945Z,40.85
2023-05-05T07:43:19.070Z,41.02
2023-05-05T07:44:18.907Z,40.64
2023-05-05T07:45:18.899Z,40.54
2023-05-05T07:46:18.923Z,40.77
2023-05-05T07:47:18.920Z,40.54
2023-05-05T07:48:18.887Z,40.71
2023-05-05T07:49:18.866Z,40.75
2023-05-05T07:50:18.836Z,40.56
2023-05-05T07:51:18.816Z,40.17
2023-05-05T07:52:19.469Z,39.98
2023-05-05T07:53:18.716Z,40.21
2023-05-05T07:54:18.633Z,39.91
2023-05-05T07:55:18.546Z,39.90
2023-05-05T07:56:19.336Z,40.09
2023-05-05T07:57:18.615Z,40.44
2023-05-05T07:58:18.566Z,39.25
2023-05-05T07:59:18.665Z,39.10
2023-05-05T08:00:18.457Z,38.92
2023-05-05T08:01:18.542Z,39.02
2023-05-05T08:02:18.685Z,38.99
2023-05-05T08:03:18.812Z,38.92
2023-05-05T08:04:18.851Z,38.59
2023-05-05T08:05:18.920Z,38.97
2023-05-05T08:06:19.027Z,39.42
2023-05-05T08:07:19.149Z,39.94
2023-05-05T08:08:19.241Z,39.76
2023-05-05T08:09:19.366Z,39.63
2023-05-05T08:10:19.414Z,39.52
2023-05-05T08:11:19.512Z,39.33
2023-05-05T08:12:19.603Z,39.43
2023-05-05T08:13:19.781Z,38.61
2023-05-05T08:14:19.836Z,38.40
2023-05-05T08:15:20.039Z,38.60
2023-05-05T08:16:20.883Z,38.32
2023-05-05T08:17:20.038Z,38.29
2023-05-05T08:18:20.008Z,38.40
2023-05-05T08:19:28.906Z,39.92
2023-05-05T08:20:20.843Z,39.42
2023-05-05T08:21:19.737Z,38.60
2023-05-05T08:22:19.628Z,37.90
2023-05-05T08:23:19.552Z,38.34
2023-05-05T08:24:19.436Z,38.18
2023-05-05T08:25:19.334Z,38.66
2023-05-05T08:26:19.221Z,39.06
2023-05-05T08:27:19.136Z,38.53
2023-05-05T08:28:19.158Z,37.74
2023-05-05T08:29:19.272Z,37.66
2023-05-05T08:30:19.374Z,37.29
2023-05-05T08:31:19.570Z,37.16
2023-05-05T08:32:19.547Z,37.40
2023-05-05T08:33:19.668Z,37.11
2023-05-05T08:34:19.735Z,37.60
2023-05-05T08:35:19.837Z,38.12
2023-05-05T08:36:20.022Z,37.51
2023-05-05T08:37:20.030Z,36.79
2023-05-05T08:38:20.314Z,37.01
2023-05-05T08:39:20.221Z,37.63
2023-05-05T08:40:20.315Z,37.41
2023-05-05T08:41:20.258Z,37.64
2023-05-05T08:42:35.577Z,37.78
2023-05-05T08:43:21.084Z,37.78
2023-05-05T08:44:19.973Z,37.37
2023-05-05T08:45:19.884Z,36.66
2023-05-05T08:46:19.790Z,36.23
2023-05-05T08:47:20.346Z,37.13
2023-05-05T08:48:19.585Z,37.67
2023-05-05T08:49:19.483Z,37.23
2023-05-05T08:50:19.375Z,36.55
2023-05-05T08:51:19.422Z,36.26
2023-05-05T08:52:19.515Z,36.51
2023-05-05T08:53:19.602Z,37.20
2023-05-05T08:54:19.690Z,36.46
2023-05-05T08:55:19.783Z,36.57
2023-05-05T08:56:19.883Z,35.77
2023-05-05T08:57:19.987Z,36.48
2023-05-05T08:58:20.094Z,37.04
2023-05-05T08:59:20.205Z,36.16
2023-05-05T09:00:20.324Z,36.10
2023-05-05T09:01:20.436Z,36.47
2023-05-05T09:02:20.533Z,36.36
2023-05-05T09:03:20.782Z,36.51
2023-05-05T09:04:20.761Z,36.77
2023-05-05T09:05:20.865Z,37.18
2023-05-05T09:06:20.989Z,37.78
2023-05-05T09:07:21.067Z,38.23
2023-05-05T09:08:21.177Z,36.49
2023-05-05T09:09:21.298Z,36.52
2023-05-05T09:10:21.553Z,35.61
2023-05-05T09:11:21.558Z,35.50
2023-05-05T09:12:21.676Z,35.78
2023-05-05T09:13:21.809Z,35.58
2023-05-05T09:14:21.900Z,35.92
2023-05-05T09:15:22.026Z,36.24
2023-05-05T09:16:22.162Z,36.58
2023-05-05T09:17:22.263Z,36.55
2023-05-05T09:18:22.354Z,36.36
2023-05-05T09:19:22.543Z,36.26
2023-05-05T09:20:22.550Z,36.87
2023-05-05T09:21:22.673Z,36.23
2023-05-05T09:22:22.725Z,36.47
2023-05-05T09:23:22.828Z,37.05
2023-05-05T09:24:22.893Z,37.15
2023-05-05T09:25:22.982Z,37.28
2023-05-05T09:26:23.175Z,37.35
2023-05-05T09:27:23.737Z,35.97
2023-05-05T09:28:23.129Z,35.87
2023-05-05T09:29:23.001Z,36.39
2023-05-05T09:30:22.844Z,37.15
2023-05-05T09:31:22.857Z,35.80
2023-05-05T09:32:22.726Z,35.85
2023-05-05T09:33:22.507Z,36.94
2023-05-05T09:34:22.418Z,36.07
2023-05-05T09:35:22.333Z,36.13
2023-05-05T09:36:22.256Z,36.14
2023-05-05T09:37:22.153Z,35.38
2023-05-05T09:38:22.056Z,35.04
2023-05-05T09:39:21.952Z,34.76
2023-05-05T09:40:21.980Z,34.93
2023-05-05T09:41:21.711Z,34.56
2023-05-05T09:42:21.579Z,34.70
2023-05-05T09:43:21.485Z,34.63
2023-05-05T09:44:21.372Z,34.49
2023-05-05T09:45:21.269Z,34.66
2023-05-05T09:46:22.863Z,34.32
2023-05-05T09:47:29.627Z,35.04
2023-05-05T09:48:22.049Z,35.14
2023-05-05T09:49:20.737Z,34.72
2023-05-05T09:50:20.730Z,35.11
2023-05-05T09:51:20.531Z,34.63
2023-05-05T09:52:21.245Z,34.51
2023-05-05T09:53:20.195Z,33.66
2023-05-05T09:54:20.037Z,33.05
2023-05-05T09:55:19.893Z,34.82
2023-05-05T09:56:19.771Z,35.37
2023-05-05T09:57:19.618Z,34.74
2023-05-05T09:58:20.055Z,33.79
2023-05-05T09:59:19.414Z,33.43
2023-05-05T10:00:20.293Z,33.24
2023-05-05T10:01:19.389Z,33.32
2023-05-05T10:02:19.182Z,33.92
2023-05-05T10:03:19.099Z,33.62
2023-05-05T10:04:19.020Z,33.70
2023-05-05T10:05:19.914Z,33.98
2023-05-05T10:06:18.828Z,33.45
2023-05-05T10:07:18.795Z,33.14
2023-05-05T10:08:18.649Z,32.79
2023-05-05T10:09:18.528Z,33.67
2023-05-05T10:10:18.530Z,33.58
2023-05-05T10:11:18.316Z,32.76
2023-05-05T10:12:18.203Z,33.12
2023-05-05T10:13:18.773Z,33.60
2023-05-05T10:14:17.971Z,33.79
2023-05-05T10:15:17.842Z,34.37
2023-05-05T10:16:17.798Z,33.98
2023-05-05T10:17:17.617Z,34.73
2023-05-05T10:18:17.517Z,34.01
2023-05-05T10:19:17.385Z,34.17
2023-05-05T10:20:17.315Z,33.78
2023-05-05T10:21:17.209Z,33.11
2023-05-05T10:22:17.118Z,32.94
2023-05-05T10:23:17.067Z,32.72
2023-05-05T10:24:16.878Z,32.95
2023-05-05T10:25:16.765Z,33.39
2023-05-05T10:26:16.638Z,32.85
2023-05-05T10:27:16.567Z,32.63
2023-05-05T10:28:16.730Z,31.68
2023-05-05T10:29:16.829Z,31.71
2023-05-05T10:30:16.950Z,31.55
2023-05-05T10:31:25.714Z,30.51
2023-05-05T10:32:47.290Z,29.68
2023-05-05T10:33:30.373Z,29.58
2023-05-05T10:34:17.832Z,29.76
2023-05-05T10:35:16.513Z,30.50
2023-05-05T10:36:16.329Z,32.11
2023-05-05T10:37:16.177Z,31.26
2023-05-05T10:38:16.021Z,30.31
2023-05-05T10:39:15.904Z,29.11
2023-05-05T10:40:15.716Z,28.08
2023-05-05T10:41:15.522Z,28.92
2023-05-05T10:42:15.368Z,29.07
2023-05-05T10:43:15.213Z,29.84
2023-05-05T10:44:15.040Z,30.74
2023-05-05T10:45:14.910Z,31.05
2023-05-05T10:46:14.783Z,29.57
2023-05-05T10:47:14.643Z,29.33
2023-05-05T10:48:14.842Z,29.47
2023-05-05T10:49:14.843Z,29.90
2023-05-05T10:50:14.883Z,28.89
2023-05-05T10:51:23.938Z,28.45
2023-05-05T10:52:15.850Z,28.42
2023-05-05T10:53:14.676Z,28.08
2023-05-05T10:54:14.536Z,28.42
2023-05-05T10:55:14.481Z,29.04
2023-05-05T10:56:14.228Z,29.32
2023-05-05T10:57:14.064Z,29.15
2023-05-05T10:58:13.901Z,29.00
2023-05-05T10:59:14.308Z,30.33
2023-05-05T11:00:15.057Z,29.71
2023-05-05T11:01:13.410Z,28.63
2023-05-05T11:02:13.332Z,29.21
2023-05-05T11:03:13.113Z,29.35
2023-05-05T11:04:12.875Z,29.00
2023-05-05T11:05:12.680Z,29.37
2023-05-05T11:06:12.511Z,29.70
2023-05-05T11:07:14.971Z,28.33
2023-05-05T11:08:12.160Z,28.38
2023-05-05T11:09:11.997Z,28.85
2023-05-05T11:10:11.946Z,28.16
2023-05-05T11:11:11.704Z,28.22
2023-05-05T11:12:11.462Z,30.29
2023-05-05T11:13:11.291Z,29.80
2023-05-05T11:14:11.106Z,29.33
2023-05-05T11:15:10.942Z,29.39
2023-05-05T11:16:11.003Z,28.80
2023-05-05T11:17:11.037Z,29.06
2023-05-05T11:18:11.222Z,28.81
2023-05-05T11:19:11.287Z,29.19
2023-05-05T11:20:11.334Z,28.08
2023-05-05T11:21:11.489Z,27.31
2023-05-05T11:22:11.600Z,27.14
2023-05-05T11:23:12.597Z,26.67
2023-05-05T11:24:11.600Z,26.75
2023-05-05T11:25:11.431Z,26.45
2023-05-05T11:26:11.281Z,26.47
2023-05-05T11:27:11.357Z,27.07
2023-05-05T11:28:11.071Z,28.25
2023-05-05T11:29:10.900Z,27.07
2023-05-05T11:30:10.987Z,26.98
2023-05-05T11:31:10.567Z,26.58
2023-05-05T11:32:10.378Z,26.16
2023-05-05T11:33:10.214Z,25.88
2023-05-05T11:34:10.025Z,27.78
2023-05-05T11:35:09.846Z,27.38
2023-05-05T11:36:09.673Z,26.48
2023-05-05T11:37:09.585Z,26.14
2023-05-05T11:38:09.364Z,26.27
2023-05-05T11:39:09.201Z,26.68
2023-05-05T11:40:09.178Z,27.79
2023-05-05T11:41:09.139Z,26.47
2023-05-05T11:42:10.687Z,25.41
2023-05-05T11:43:08.789Z,25.73
2023-05-05T11:44:08.504Z,25.95
2023-05-05T11:45:08.386Z,26.27
2023-05-05T11:46:08.330Z,25.04
2023-05-05T11:47:08.124Z,24.79
2023-05-05T11:48:08.204Z,25.23
2023-05-05T11:49:07.842Z,24.41
2023-05-05T11:50:07.858Z,24.48
2023-05-05T11:51:07.535Z,25.76
2023-05-05T11:52:07.397Z,25.36
2023-05-05T11:53:07.259Z,24.99
2023-05-05T11:54:07.108Z,24.74
2023-05-05T11:55:06.981Z,24.28
2023-05-05T11:56:06.790Z,24.89
2023-05-05T11:57:06.639Z,25.39
2023-05-05T11:58:06.461Z,26.06
2023-05-05T11:59:06.405Z,25.48
2023-05-05T12:01:06.545Z,25.73
2023-05-05T12:02:06.502Z,25.61
2023-05-05T12:03:06.838Z,26.12
2023-05-05T12:04:06.829Z,25.78
2023-05-05T12:05:06.872Z,24.80
2023-05-05T12:06:06.955Z,25.50
2023-05-05T12:07:07.044Z,25.79
2023-05-05T12:08:07.138Z,25.70
2023-05-05T12:09:07.326Z,24.94
2023-05-05T12:10:07.603Z,25.05
2023-05-05T12:11:07.200Z,24.75
2023-05-05T12:12:07.052Z,24.65
2023-05-05T12:13:06.960Z,24.04
2023-05-05T12:14:06.859Z,24.01
2023-05-05T12:15:07.027Z,24.09
2023-05-05T12:16:07.080Z,23.86
2023-05-05T12:17:07.108Z,24.14
2023-05-05T12:18:07.225Z,24.34
2023-05-05T12:19:07.281Z,23.60
2023-05-05T12:20:07.596Z,22.80
2023-05-05T12:21:07.169Z,24.42
2023-05-05T12:22:07.004Z,24.77
2023-05-05T12:23:06.846Z,23.94
2023-05-05T12:24:06.673Z,24.93
2023-05-05T12:25:06.714Z,24.69
2023-05-05T12:26:06.746Z,24.70
2023-05-05T12:27:06.831Z,25.35
2023-05-05T12:28:06.998Z,24.00
2023-05-05T12:29:06.964Z,22.46
2023-05-05T12:30:07.207Z,23.13
2023-05-05T12:31:07.279Z,22.75
2023-05-05T12:32:07.293Z,23.31
2023-05-05T12:33:07.298Z,23.21
2023-05-05T12:34:07.360Z,23.54
2023-05-05T12:35:07.448Z,23.88
2023-05-05T12:36:07.523Z,23.64
2023-05-05T12:37:07.620Z,23.87
2023-05-05T12:38:07.648Z,23.12
2023-05-05T12:39:07.818Z,23.59
2023-05-05T12:40:08.059Z,24.11
2023-05-05T12:41:07.967Z,23.22
2023-05-05T12:42:08.023Z,24.31
2023-05-05T12:43:08.086Z,24.18
2023-05-05T12:44:08.187Z,23.25
2023-05-05T12:45:08.281Z,22.56
2023-05-05T12:46:08.415Z,22.26
2023-05-05T12:47:08.515Z,23.08
2023-05-05T12:48:08.557Z,23.50
2023-05-05T12:49:08.639Z,23.31
2023-05-05T12:50:08.875Z,23.55
2023-05-05T12:51:08.745Z,23.73
2023-05-05T12:52:08.837Z,22.88
2023-05-05T12:53:08.988Z,22.86